createdAt,value
2019-03-20T00:00:53.318Z,1015.10
2019-03-20T00:01:53.339Z,1015.06
2019-03-20T00:02:53.306Z,1015.06
2019-03-20T00:03:53.291Z,1015.12
2019-03-20T00:04:53.276Z,1015.16
2019-03-20T00:05:53.262Z,1015.16
2019-03-20T00:06:53.274Z,1015.14
2019-03-20T00:07:53.241Z,1015.20
2019-03-20T00:08:53.234Z,1015.18
2019-03-20T00:09:53.233Z,1015.25
2019-03-20T00:10:53.210Z,1015.21
2019-03-20T00:11:53.228Z,1015.16
2019-03-20T00:12:53.190Z,1015.16
2019-03-20T00:13:53.166Z,1015.24
2019-03-20T00:14:53.169Z,1015.25
2019-03-20T00:15:53.157Z,1015.22
2019-03-20T00:16:53.174Z,1015.18
2019-03-20T00:17:53.138Z,1015.21
2019-03-20T00:18:53.140Z,1015.16
2019-03-20T00:19:53.111Z,1015.24
2019-03-20T00:20:53.104Z,1015.26
2019-03-20T00:21:53.123Z,1015.17
2019-03-20T00:22:53.084Z,1015.16
2019-03-20T00:23:53.073Z,1015.22
2019-03-20T00:24:53.062Z,1015.19
2019-03-20T00:25:53.050Z,1015.18
2019-03-20T00:26:53.224Z,1015.15
2019-03-20T00:27:53.033Z,1015.17
2019-03-20T00:28:53.023Z,1015.29
2019-03-20T00:29:53.010Z,1015.23
2019-03-20T00:30:53.010Z,1015.16
2019-03-20T00:31:52.989Z,1015.29
2019-03-20T00:32:52.996Z,1015.18
2019-03-20T00:33:52.968Z,1015.17
2019-03-20T00:35:00.818Z,1015.18
2019-03-20T00:35:53.950Z,1015.18
2019-03-20T00:36:52.933Z,1015.14
2019-03-20T00:37:52.950Z,1015.13
2019-03-20T00:38:52.928Z,1015.14
2019-03-20T00:39:52.906Z,1015.12
2019-03-20T00:40:52.890Z,1015.13
2019-03-20T00:41:52.887Z,1015.07
2019-03-20T00:42:52.893Z,1015.16
2019-03-20T00:43:52.864Z,1015.08
2019-03-20T00:44:52.858Z,1015.16
2019-03-20T00:45:52.843Z,1015.12
2019-03-20T00:46:52.828Z,1015.11
2019-03-20T00:47:52.847Z,1015.12
2019-03-20T00:48:52.818Z,1015.01
2019-03-20T00:49:52.794Z,1015.06
2019-03-20T00:50:52.799Z,1015.03
2019-03-20T00:51:52.778Z,1014.97
2019-03-20T00:52:52.807Z,1014.97
2019-03-20T00:53:52.755Z,1014.98
2019-03-20T00:54:52.749Z,1014.95
2019-03-20T00:55:52.734Z,1015.00
2019-03-20T00:56:52.729Z,1014.93
2019-03-20T00:57:52.749Z,1014.95
2019-03-20T00:58:52.706Z,1014.97
2019-03-20T00:59:52.695Z,1014.93
2019-03-20T01:00:52.686Z,1014.91
2019-03-20T01:01:52.675Z,1014.94
2019-03-20T01:02:52.679Z,1014.87
2019-03-20T01:03:52.650Z,1014.87
2019-03-20T01:04:52.646Z,1014.98
2019-03-20T01:05:52.629Z,1015.00
2019-03-20T01:06:52.618Z,1014.94
2019-03-20T01:07:52.639Z,1014.92
2019-03-20T01:08:52.598Z,1014.89
2019-03-20T01:09:52.588Z,1014.92
2019-03-20T01:10:52.582Z,1014.90
2019-03-20T01:11:52.566Z,1014.92
2019-03-20T01:12:52.574Z,1014.91
2019-03-20T01:13:52.553Z,1014.91
2019-03-20T01:14:52.536Z,1014.95
2019-03-20T01:15:52.526Z,1015.04
2019-03-20T01:16:52.514Z,1014.93
2019-03-20T01:17:52.534Z,1014.99
2019-03-20T01:18:52.500Z,1015.15
2019-03-20T01:19:52.496Z,1015.08
2019-03-20T01:20:52.475Z,1015.05
2019-03-20T01:21:52.463Z,1015.04
2019-03-20T01:22:52.479Z,1015.04
2019-03-20T01:23:52.439Z,1015.13
2019-03-20T01:24:52.435Z,1015.09
2019-03-20T01:25:52.433Z,1015.06
2019-03-20T01:26:52.411Z,1015.00
2019-03-20T01:27:52.433Z,1015.04
2019-03-20T01:28:52.390Z,1015.05
2019-03-20T01:29:52.378Z,1015.10
2019-03-20T01:30:52.372Z,1015.05
2019-03-20T01:31:52.359Z,1014.99
2019-03-20T01:32:52.377Z,1015.09
2019-03-20T01:33:54.828Z,1015.02
2019-03-20T01:34:52.327Z,1015.00
2019-03-20T01:35:52.319Z,1015.07
2019-03-20T01:36:52.310Z,1015.01
2019-03-20T01:37:52.323Z,1015.01
2019-03-20T01:38:52.286Z,1015.02
2019-03-20T01:39:52.275Z,1015.01
2019-03-20T01:40:52.263Z,1015.01
2019-03-20T01:41:52.255Z,1015.03
2019-03-20T01:42:52.270Z,1015.00
2019-03-20T01:43:52.236Z,1015.01
2019-03-20T01:44:52.232Z,1015.03
2019-03-20T01:45:52.210Z,1015.03
2019-03-20T01:46:52.193Z,1015.06
2019-03-20T01:47:52.220Z,1015.05
2019-03-20T01:48:52.185Z,1015.13
2019-03-20T01:49:52.167Z,1015.12
2019-03-20T01:50:52.159Z,1015.08
2019-03-20T01:51:52.150Z,1015.11
2019-03-20T01:52:52.157Z,1015.14
2019-03-20T01:53:52.128Z,1015.17
2019-03-20T01:54:52.124Z,1015.10
2019-03-20T01:55:52.111Z,1015.12
2019-03-20T01:56:52.101Z,1015.10
2019-03-20T01:57:52.115Z,1015.12
2019-03-20T01:58:52.079Z,1015.18
2019-03-20T01:59:52.065Z,1015.11
2019-03-20T02:00:52.062Z,1015.05
2019-03-20T02:01:52.046Z,1015.07
2019-03-20T02:02:52.083Z,1015.12
2019-03-20T02:03:52.020Z,1015.09
2019-03-20T02:04:52.013Z,1015.05
2019-03-20T02:05:52.007Z,1015.13
2019-03-20T02:06:51.990Z,1015.06
2019-03-20T02:07:51.984Z,1015.11
2019-03-20T02:08:52.006Z,1015.10
2019-03-20T02:09:51.953Z,1015.06
2019-03-20T02:10:51.955Z,1015.03
2019-03-20T02:11:51.950Z,1015.08
2019-03-20T02:12:51.937Z,1015.05
2019-03-20T02:13:51.951Z,1015.05
2019-03-20T02:14:51.907Z,1015.06
2019-03-20T02:15:51.902Z,1015.15
2019-03-20T02:16:51.888Z,1015.13
2019-03-20T02:17:51.890Z,1015.06
2019-03-20T02:18:51.897Z,1015.14
2019-03-20T02:19:51.843Z,1015.07
2019-03-20T02:20:51.848Z,1015.04
2019-03-20T02:21:51.834Z,1015.11
2019-03-20T02:22:51.814Z,1015.10
2019-03-20T02:23:51.839Z,1015.15
2019-03-20T02:24:51.802Z,1015.15
2019-03-20T02:25:51.799Z,1015.12
2019-03-20T02:26:51.782Z,1015.13
2019-03-20T02:27:51.776Z,1015.10
2019-03-20T02:28:51.793Z,1015.12
2019-03-20T02:29:51.758Z,1015.04
2019-03-20T02:30:51.741Z,1015.15
2019-03-20T02:31:51.732Z,1015.15
2019-03-20T02:32:51.730Z,1015.26
2019-03-20T02:33:51.745Z,1015.13
2019-03-20T02:34:51.698Z,1015.10
2019-03-20T02:35:52.469Z,1015.13
2019-03-20T02:36:51.670Z,1015.12
2019-03-20T02:37:51.666Z,1015.16
2019-03-20T02:38:51.687Z,1015.20
2019-03-20T02:39:51.649Z,1015.13
2019-03-20T02:40:51.636Z,1015.10
2019-03-20T02:41:51.630Z,1015.12
2019-03-20T02:42:51.620Z,1015.16
2019-03-20T02:43:51.632Z,1015.21
2019-03-20T02:44:51.604Z,1015.14
2019-03-20T02:45:51.587Z,1015.10
2019-03-20T02:46:51.573Z,1015.18
2019-03-20T02:47:51.565Z,1015.13
2019-03-20T02:48:51.584Z,1015.24
2019-03-20T02:49:51.542Z,1015.14
2019-03-20T02:50:51.536Z,1015.21
2019-03-20T02:51:51.522Z,1015.14
2019-03-20T02:52:51.522Z,1015.12
2019-03-20T02:53:51.532Z,1015.14
2019-03-20T02:54:51.495Z,1015.12
2019-03-20T02:55:51.479Z,1015.05
2019-03-20T02:56:51.467Z,1015.10
2019-03-20T02:57:51.459Z,1015.13
2019-03-20T02:58:51.477Z,1015.13
2019-03-20T02:59:51.471Z,1015.10
2019-03-20T03:00:51.428Z,1015.11
2019-03-20T03:01:51.415Z,1015.13
2019-03-20T03:02:51.403Z,1015.10
2019-03-20T03:03:51.425Z,1015.13
2019-03-20T03:04:51.388Z,1015.13
2019-03-20T03:06:05.688Z,1015.11
2019-03-20T03:06:52.364Z,1015.14
2019-03-20T03:07:51.401Z,1015.20
2019-03-20T03:08:51.444Z,1015.16
2019-03-20T03:09:51.346Z,1015.04
2019-03-20T03:10:51.338Z,1015.10
2019-03-20T03:11:51.312Z,1015.06
2019-03-20T03:12:51.304Z,1015.17
2019-03-20T03:13:51.317Z,1015.12
2019-03-20T03:14:51.287Z,1015.14
2019-03-20T03:15:51.278Z,1015.13
2019-03-20T03:16:51.259Z,1015.14
2019-03-20T03:17:51.343Z,1015.07
2019-03-20T03:18:51.279Z,1015.14
2019-03-20T03:19:51.230Z,1015.12
2019-03-20T03:20:51.225Z,1015.09
2019-03-20T03:21:51.211Z,1015.16
2019-03-20T03:22:51.196Z,1015.25
2019-03-20T03:23:51.217Z,1015.17
2019-03-20T03:24:51.196Z,1015.24
2019-03-20T03:25:51.166Z,1015.22
2019-03-20T03:26:51.147Z,1015.26
2019-03-20T03:27:51.156Z,1015.18
2019-03-20T03:28:51.159Z,1015.25
2019-03-20T03:29:51.123Z,1015.17
2019-03-20T03:30:51.119Z,1015.24
2019-03-20T03:31:51.111Z,1015.20
2019-03-20T03:32:51.095Z,1015.19
2019-03-20T03:33:51.117Z,1015.15
2019-03-20T03:34:51.073Z,1015.20
2019-03-20T03:35:51.060Z,1015.18
2019-03-20T03:36:51.058Z,1015.20
2019-03-20T03:37:51.038Z,1015.21
2019-03-20T03:38:51.056Z,1015.23
2019-03-20T03:39:51.029Z,1015.21
2019-03-20T03:40:51.006Z,1015.22
2019-03-20T03:41:51.009Z,1015.20
2019-03-20T03:42:51.031Z,1015.20
2019-03-20T03:43:51.004Z,1015.19
2019-03-20T03:44:50.970Z,1015.23
2019-03-20T03:45:50.962Z,1015.19
2019-03-20T03:46:50.952Z,1015.21
2019-03-20T03:47:50.935Z,1015.29
2019-03-20T03:48:50.956Z,1015.25
2019-03-20T03:49:50.944Z,1015.34
2019-03-20T03:50:50.906Z,1015.31
2019-03-20T03:51:50.901Z,1015.28
2019-03-20T03:52:50.891Z,1015.26
2019-03-20T03:53:50.903Z,1015.28
2019-03-20T03:54:50.886Z,1015.26
2019-03-20T03:55:50.864Z,1015.30
2019-03-20T03:56:50.842Z,1015.33
2019-03-20T03:57:50.833Z,1015.27
2019-03-20T03:58:50.833Z,1015.31
2019-03-20T03:59:50.838Z,1015.26
2019-03-20T04:00:50.820Z,1015.30
2019-03-20T04:01:50.799Z,1015.26
2019-03-20T04:02:50.779Z,1015.35
2019-03-20T04:03:50.779Z,1015.30
2019-03-20T04:04:50.794Z,1015.34
2019-03-20T04:05:50.752Z,1015.33
2019-03-20T04:06:50.747Z,1015.31
2019-03-20T04:07:50.729Z,1015.32
2019-03-20T04:08:50.720Z,1015.27
2019-03-20T04:09:50.731Z,1015.28
2019-03-20T04:10:50.707Z,1015.30
2019-03-20T04:11:50.699Z,1015.35
2019-03-20T04:12:50.672Z,1015.29
2019-03-20T04:13:50.665Z,1015.31
2019-03-20T04:14:50.689Z,1015.25
2019-03-20T04:15:50.646Z,1015.29
2019-03-20T04:16:50.627Z,1015.32
2019-03-20T04:17:50.628Z,1015.29
2019-03-20T04:18:50.616Z,1015.22
2019-03-20T04:19:50.654Z,1015.32
2019-03-20T04:20:50.602Z,1015.31
2019-03-20T04:21:50.580Z,1015.26
2019-03-20T04:22:50.584Z,1015.35
2019-03-20T04:23:50.568Z,1015.29
2019-03-20T04:24:50.574Z,1015.27
2019-03-20T04:25:50.547Z,1015.31
2019-03-20T04:26:50.551Z,1015.30
2019-03-20T04:27:50.522Z,1015.25
2019-03-20T04:28:50.510Z,1015.26
2019-03-20T04:29:50.523Z,1015.25
2019-03-20T04:30:50.497Z,1015.21
2019-03-20T04:31:50.475Z,1015.21
2019-03-20T04:32:50.461Z,1015.29
2019-03-20T04:33:50.457Z,1015.23
2019-03-20T04:34:50.477Z,1015.23
2019-03-20T04:35:50.435Z,1015.22
2019-03-20T04:36:50.421Z,1015.27
2019-03-20T04:37:50.422Z,1015.24
2019-03-20T04:38:50.409Z,1015.27
2019-03-20T04:39:50.414Z,1015.22
2019-03-20T04:40:50.397Z,1015.29
2019-03-20T04:41:50.371Z,1015.29
2019-03-20T04:42:50.354Z,1015.33
2019-03-20T04:43:50.352Z,1015.28
2019-03-20T04:44:50.368Z,1015.28
2019-03-20T04:45:50.333Z,1015.31
2019-03-20T04:46:50.325Z,1015.33
2019-03-20T04:47:50.309Z,1015.33
2019-03-20T04:48:50.302Z,1015.33
2019-03-20T04:49:50.311Z,1015.32
2019-03-20T04:50:50.279Z,1015.40
2019-03-20T04:51:50.266Z,1015.34
2019-03-20T04:52:50.267Z,1015.32
2019-03-20T04:53:50.277Z,1015.33
2019-03-20T04:54:50.378Z,1015.37
2019-03-20T04:55:50.330Z,1015.29
2019-03-20T04:56:50.291Z,1015.40
2019-03-20T04:57:50.203Z,1015.40
2019-03-20T04:58:50.210Z,1015.42
2019-03-20T04:59:50.247Z,1015.33
2019-03-20T05:00:50.209Z,1015.44
2019-03-20T05:01:50.246Z,1015.35
2019-03-20T05:02:50.170Z,1015.40
2019-03-20T05:03:50.174Z,1015.41
2019-03-20T05:04:50.249Z,1015.35
2019-03-20T05:05:50.122Z,1015.39
2019-03-20T05:06:58.355Z,1015.37
2019-03-20T05:07:51.099Z,1015.32
2019-03-20T05:08:50.091Z,1015.40
2019-03-20T05:09:50.111Z,1015.34
2019-03-20T05:10:50.071Z,1015.36
2019-03-20T05:11:50.055Z,1015.42
2019-03-20T05:12:50.050Z,1015.41
2019-03-20T05:13:50.039Z,1015.39
2019-03-20T05:14:50.067Z,1015.38
2019-03-20T05:15:50.015Z,1015.40
2019-03-20T05:17:49.556Z,1015.32
2019-03-20T05:18:49.560Z,1015.34
2019-03-20T05:19:49.554Z,1015.36
2019-03-20T05:20:49.524Z,1015.38
2019-03-20T05:21:49.502Z,1015.37
2019-03-20T05:22:49.499Z,1015.47
2019-03-20T05:23:49.484Z,1015.42
2019-03-20T05:24:49.496Z,1015.39
2019-03-20T05:25:49.464Z,1015.43
2019-03-20T05:26:49.471Z,1015.38
2019-03-20T05:27:49.435Z,1015.37
2019-03-20T05:28:49.423Z,1015.35
2019-03-20T05:29:49.442Z,1015.44
2019-03-20T05:30:49.407Z,1015.36
2019-03-20T05:31:49.400Z,1015.43
2019-03-20T05:32:49.386Z,1015.48
2019-03-20T05:33:49.381Z,1015.44
2019-03-20T05:34:49.393Z,1015.45
2019-03-20T05:35:49.351Z,1015.52
2019-03-20T05:36:49.368Z,1015.47
2019-03-20T05:37:49.331Z,1015.56
2019-03-20T05:38:49.319Z,1015.52
2019-03-20T05:39:49.371Z,1015.54
2019-03-20T05:40:49.300Z,1015.58
2019-03-20T05:41:49.288Z,1015.56
2019-03-20T05:42:49.280Z,1015.58
2019-03-20T05:43:49.268Z,1015.56
2019-03-20T05:44:49.289Z,1015.61
2019-03-20T05:45:49.245Z,1015.61
2019-03-20T05:46:49.239Z,1015.60
2019-03-20T05:47:49.228Z,1015.57
2019-03-20T05:48:49.217Z,1015.55
2019-03-20T05:49:49.229Z,1015.60
2019-03-20T05:50:49.196Z,1015.51
2019-03-20T05:51:49.180Z,1015.59
2019-03-20T05:52:49.175Z,1015.57
2019-03-20T05:53:49.162Z,1015.67
2019-03-20T05:54:49.190Z,1015.69
2019-03-20T05:55:49.140Z,1015.65
2019-03-20T05:56:49.127Z,1015.68
2019-03-20T05:57:49.119Z,1015.67
2019-03-20T05:58:49.111Z,1015.66
2019-03-20T05:59:49.107Z,1015.77
2019-03-20T06:00:49.127Z,1015.69
2019-03-20T06:01:49.090Z,1015.73
2019-03-20T06:02:49.075Z,1015.75
2019-03-20T06:03:49.055Z,1015.64
2019-03-20T06:04:49.047Z,1015.70
2019-03-20T06:05:49.060Z,1015.78
2019-03-20T06:06:49.025Z,1015.78
2019-03-20T06:07:49.015Z,1015.86
2019-03-20T06:08:49.005Z,1015.81
2019-03-20T06:09:48.994Z,1015.88
2019-03-20T06:10:49.008Z,1015.85
2019-03-20T06:11:48.968Z,1015.82
2019-03-20T06:12:48.964Z,1015.83
2019-03-20T06:13:48.951Z,1015.82
2019-03-20T06:14:48.935Z,1015.91
2019-03-20T06:15:48.958Z,1015.88
2019-03-20T06:16:48.919Z,1015.92
2019-03-20T06:17:48.903Z,1015.96
2019-03-20T06:18:48.892Z,1015.95
2019-03-20T06:19:48.880Z,1015.86
2019-03-20T06:20:48.906Z,1015.91
2019-03-20T06:21:48.863Z,1015.93
2019-03-20T06:22:48.847Z,1015.95
2019-03-20T06:23:48.840Z,1015.95
2019-03-20T06:24:48.827Z,1015.99
2019-03-20T06:25:51.326Z,1015.91
2019-03-20T06:26:48.814Z,1015.97
2019-03-20T06:27:48.798Z,1015.94
2019-03-20T06:28:48.786Z,1015.95
2019-03-20T06:29:48.800Z,1016.01
2019-03-20T06:30:48.790Z,1015.92
2019-03-20T06:31:48.751Z,1015.93
2019-03-20T06:32:48.743Z,1015.97
2019-03-20T06:33:48.733Z,1016.05
2019-03-20T06:34:49.013Z,1015.94
2019-03-20T06:35:48.735Z,1015.98
2019-03-20T06:36:49.134Z,1015.97
2019-03-20T06:37:48.706Z,1015.96
2019-03-20T06:38:48.678Z,1015.90
2019-03-20T06:39:48.668Z,1015.94
2019-03-20T06:40:48.687Z,1015.90
2019-03-20T06:41:48.654Z,1015.95
2019-03-20T06:42:48.639Z,1015.97
2019-03-20T06:43:48.635Z,1015.94
2019-03-20T06:44:48.614Z,1016.02
2019-03-20T06:45:48.632Z,1015.97
2019-03-20T06:46:48.599Z,1016.08
2019-03-20T06:47:48.585Z,1016.04
2019-03-20T06:48:48.605Z,1016.01
2019-03-20T06:49:48.567Z,1015.99
2019-03-20T06:50:48.585Z,1015.92
2019-03-20T06:51:48.572Z,1015.99
2019-03-20T06:52:48.530Z,1015.98
2019-03-20T06:53:48.525Z,1015.98
2019-03-20T06:54:48.508Z,1016.03
2019-03-20T06:55:48.543Z,1016.02
2019-03-20T06:56:48.488Z,1015.99
2019-03-20T06:57:48.519Z,1015.98
2019-03-20T06:58:48.467Z,1016.05
2019-03-20T06:59:48.483Z,1016.00
2019-03-20T07:00:48.481Z,1016.00
2019-03-20T07:01:48.457Z,1016.02
2019-03-20T07:02:48.429Z,1015.99
2019-03-20T07:03:48.410Z,1016.01
2019-03-20T07:04:48.401Z,1015.89
2019-03-20T07:05:48.415Z,1015.95
2019-03-20T07:06:48.381Z,1016.00
2019-03-20T07:07:48.368Z,1016.01
2019-03-20T07:08:48.387Z,1016.00
2019-03-20T07:09:48.352Z,1016.01
2019-03-20T07:10:48.358Z,1016.10
2019-03-20T07:11:48.328Z,1016.03
2019-03-20T07:12:48.318Z,1016.10
2019-03-20T07:13:50.532Z,1016.17
2019-03-20T07:14:48.291Z,1016.11
2019-03-20T07:15:48.313Z,1016.14
2019-03-20T07:16:48.277Z,1016.09
2019-03-20T07:17:48.263Z,1016.03
2019-03-20T07:18:48.248Z,1016.16
2019-03-20T07:19:48.239Z,1016.15
2019-03-20T07:20:48.261Z,1016.09
2019-03-20T07:21:48.218Z,1016.18
2019-03-20T07:22:48.211Z,1016.03
2019-03-20T07:23:48.205Z,1016.13
2019-03-20T07:24:48.183Z,1016.09
2019-03-20T07:25:48.198Z,1016.08
2019-03-20T07:26:48.167Z,1016.11
2019-03-20T07:27:48.155Z,1016.20
2019-03-20T07:28:48.150Z,1016.10
2019-03-20T07:29:48.146Z,1016.14
2019-03-20T07:30:48.190Z,1016.08
2019-03-20T07:31:48.117Z,1016.14
2019-03-20T07:32:48.100Z,1016.13
2019-03-20T07:33:48.091Z,1016.18
2019-03-20T07:34:48.086Z,1016.14
2019-03-20T07:35:48.112Z,1016.20
2019-03-20T07:36:48.056Z,1016.17
2019-03-20T07:37:55.925Z,1016.20
2019-03-20T07:38:49.069Z,1016.17
2019-03-20T07:39:48.028Z,1016.22
2019-03-20T07:40:48.035Z,1016.20
2019-03-20T07:41:48.001Z,1016.18
2019-03-20T07:42:47.987Z,1016.24
2019-03-20T07:43:47.982Z,1016.13
2019-03-20T07:44:47.969Z,1016.21
2019-03-20T07:45:47.985Z,1016.31
2019-03-20T07:46:47.954Z,1016.22
2019-03-20T07:47:47.935Z,1016.22
2019-03-20T07:48:47.938Z,1016.13
2019-03-20T07:49:47.921Z,1016.20
2019-03-20T07:50:47.965Z,1016.27
2019-03-20T07:51:47.960Z,1016.24
2019-03-20T07:52:47.899Z,1016.18
2019-03-20T07:53:47.883Z,1016.21
2019-03-20T07:54:47.878Z,1016.24
2019-03-20T07:55:47.853Z,1016.27
2019-03-20T07:56:47.951Z,1016.26
2019-03-20T07:57:47.829Z,1016.28
2019-03-20T07:58:47.820Z,1016.30
2019-03-20T07:59:47.812Z,1016.27
2019-03-20T08:00:47.810Z,1016.23
2019-03-20T08:01:47.834Z,1016.34
2019-03-20T08:02:47.777Z,1016.35
2019-03-20T08:03:47.772Z,1016.21
2019-03-20T08:04:47.750Z,1016.33
2019-03-20T08:05:47.748Z,1016.37
2019-03-20T08:06:47.760Z,1016.34
2019-03-20T08:07:47.722Z,1016.44
2019-03-20T08:08:47.711Z,1016.46
2019-03-20T08:09:47.701Z,1016.47
2019-03-20T08:10:47.693Z,1016.61
2019-03-20T08:11:47.707Z,1016.52
2019-03-20T08:12:47.669Z,1016.50
2019-03-20T08:13:47.659Z,1016.47
2019-03-20T08:14:47.655Z,1016.45
2019-03-20T08:15:47.641Z,1016.46
2019-03-20T08:16:47.655Z,1016.50
2019-03-20T08:17:47.618Z,1016.58
2019-03-20T08:18:47.607Z,1016.57
2019-03-20T08:19:47.591Z,1016.49
2019-03-20T08:20:47.579Z,1016.51
2019-03-20T08:21:47.598Z,1016.55
2019-03-20T08:22:47.560Z,1016.57
2019-03-20T08:23:47.552Z,1016.63
2019-03-20T08:24:47.539Z,1016.61
2019-03-20T08:25:47.525Z,1016.61
2019-03-20T08:26:47.539Z,1016.66
2019-03-20T08:27:47.507Z,1016.55
2019-03-20T08:28:47.492Z,1016.59
2019-03-20T08:29:47.484Z,1016.54
2019-03-20T08:30:47.473Z,1016.58
2019-03-20T08:31:47.488Z,1016.53
2019-03-20T08:32:47.456Z,1016.62
2019-03-20T08:33:47.436Z,1016.73
2019-03-20T08:34:47.429Z,1016.72
2019-03-20T08:35:47.458Z,1016.68
2019-03-20T08:36:47.438Z,1016.71
2019-03-20T08:37:47.404Z,1016.84
2019-03-20T08:38:47.386Z,1016.78
2019-03-20T08:39:47.372Z,1016.78
2019-03-20T08:40:47.375Z,1016.74
2019-03-20T08:41:47.379Z,1016.78
2019-03-20T08:42:47.339Z,1016.88
2019-03-20T08:43:47.340Z,1016.77
2019-03-20T08:44:47.321Z,1016.81
2019-03-20T08:45:47.307Z,1016.88
2019-03-20T08:46:47.330Z,1016.80
2019-03-20T08:47:47.286Z,1016.65
2019-03-20T08:48:48.454Z,1016.64
2019-03-20T08:49:47.270Z,1016.73
2019-03-20T08:50:47.265Z,1016.74
2019-03-20T08:51:47.275Z,1016.77
2019-03-20T08:52:47.245Z,1016.74
2019-03-20T08:53:47.225Z,1016.84
2019-03-20T08:54:47.216Z,1016.79
2019-03-20T08:55:47.205Z,1016.83
2019-03-20T08:56:47.223Z,1016.80
2019-03-20T08:57:47.179Z,1016.75
2019-03-20T08:58:47.168Z,1016.82
2019-03-20T08:59:47.162Z,1016.75
2019-03-20T09:00:47.151Z,1016.90
2019-03-20T09:01:47.167Z,1016.78
2019-03-20T09:02:47.127Z,1016.82
2019-03-20T09:03:47.114Z,1016.85
2019-03-20T09:04:47.102Z,1016.85
2019-03-20T09:05:47.083Z,1016.76
2019-03-20T09:06:47.124Z,1016.71
2019-03-20T09:07:47.755Z,1016.75
2019-03-20T09:08:47.057Z,1016.65
2019-03-20T09:09:47.050Z,1016.70
2019-03-20T09:10:47.037Z,1016.78
2019-03-20T09:11:47.031Z,1016.73
2019-03-20T09:12:47.046Z,1016.71
2019-03-20T09:13:47.021Z,1016.76
2019-03-20T09:14:46.995Z,1016.76
2019-03-20T09:15:46.985Z,1016.69
2019-03-20T09:16:46.972Z,1016.71
2019-03-20T09:17:46.993Z,1016.74
2019-03-20T09:18:46.960Z,1016.67
2019-03-20T09:19:46.940Z,1016.65
2019-03-20T09:20:46.929Z,1016.68
2019-03-20T09:21:46.930Z,1016.72
2019-03-20T09:22:46.931Z,1016.71
2019-03-20T09:23:46.900Z,1016.70
2019-03-20T09:24:46.887Z,1016.73
2019-03-20T09:25:46.876Z,1016.76
2019-03-20T09:26:46.859Z,1016.76
2019-03-20T09:27:46.877Z,1016.79
2019-03-20T09:28:46.845Z,1016.73
2019-03-20T09:29:46.833Z,1016.79
2019-03-20T09:30:46.830Z,1016.73
2019-03-20T09:31:46.810Z,1016.71
2019-03-20T09:32:46.833Z,1016.72
2019-03-20T09:33:46.814Z,1016.69
2019-03-20T09:34:46.778Z,1016.74
2019-03-20T09:35:46.773Z,1016.91
2019-03-20T09:36:46.762Z,1016.75
2019-03-20T09:37:51.968Z,1016.77
2019-03-20T09:38:47.736Z,1016.85
2019-03-20T09:39:46.721Z,1016.89
2019-03-20T09:40:46.713Z,1016.81
2019-03-20T09:41:46.708Z,1016.78
2019-03-20T09:42:46.720Z,1016.85
2019-03-20T09:43:46.679Z,1016.79
2019-03-20T09:44:46.671Z,1016.84
2019-03-20T09:45:46.658Z,1016.83
2019-03-20T09:46:46.650Z,1016.87
2019-03-20T09:47:46.659Z,1016.82
2019-03-20T09:48:46.628Z,1016.80
2019-03-20T09:49:46.615Z,1016.80
2019-03-20T09:50:46.604Z,1016.81
2019-03-20T09:51:46.627Z,1016.81
2019-03-20T09:52:46.607Z,1016.77
2019-03-20T09:53:46.578Z,1016.76
2019-03-20T09:54:46.568Z,1016.83
2019-03-20T09:55:46.553Z,1016.78
2019-03-20T09:56:46.543Z,1016.72
2019-03-20T09:57:46.557Z,1016.72
2019-03-20T09:58:46.562Z,1016.75
2019-03-20T09:59:46.510Z,1016.70
2019-03-20T10:00:46.497Z,1016.87
2019-03-20T10:01:46.497Z,1016.76
2019-03-20T10:02:46.500Z,1016.72
2019-03-20T10:03:46.469Z,1016.74
2019-03-20T10:04:46.461Z,1016.70
2019-03-20T10:05:46.449Z,1016.77
2019-03-20T10:06:46.435Z,1016.74
2019-03-20T10:07:46.447Z,1016.76
2019-03-20T10:08:53.750Z,1016.77
2019-03-20T10:09:47.418Z,1016.74
2019-03-20T10:10:46.390Z,1016.67
2019-03-20T10:11:46.379Z,1016.66
2019-03-20T10:12:46.395Z,1016.66
2019-03-20T10:13:46.361Z,1016.66
2019-03-20T10:14:46.340Z,1016.69
2019-03-20T10:15:46.335Z,1016.70
2019-03-20T10:16:46.324Z,1016.66
2019-03-20T10:17:46.341Z,1016.66
2019-03-20T10:18:46.295Z,1016.68
2019-03-20T10:19:46.293Z,1016.63
2019-03-20T10:20:46.280Z,1016.68
2019-03-20T10:21:46.266Z,1016.70
2019-03-20T10:22:46.276Z,1016.67
2019-03-20T10:23:46.243Z,1016.65
2019-03-20T10:24:46.229Z,1016.67
2019-03-20T10:25:46.226Z,1016.70
2019-03-20T10:26:46.214Z,1016.66
2019-03-20T10:27:46.227Z,1016.73
2019-03-20T10:28:46.183Z,1016.70
2019-03-20T10:29:46.178Z,1016.76
2019-03-20T10:30:46.166Z,1016.76
2019-03-20T10:31:46.154Z,1016.76
2019-03-20T10:32:46.175Z,1016.74
2019-03-20T10:33:46.140Z,1016.83
2019-03-20T10:34:46.130Z,1016.78
2019-03-20T10:35:50.328Z,1016.85
2019-03-20T10:36:46.104Z,1016.84
2019-03-20T10:37:46.122Z,1016.76
2019-03-20T10:38:48.630Z,1016.77
2019-03-20T10:39:46.134Z,1016.82
2019-03-20T10:40:46.062Z,1016.71
2019-03-20T10:41:46.050Z,1016.75
2019-03-20T10:42:46.063Z,1016.74
2019-03-20T10:43:46.028Z,1016.86
2019-03-20T10:44:46.027Z,1016.79
2019-03-20T10:45:46.012Z,1016.81
2019-03-20T10:46:45.996Z,1016.84
2019-03-20T10:47:46.009Z,1016.79
2019-03-20T10:48:45.978Z,1016.79
2019-03-20T10:49:45.964Z,1016.84
2019-03-20T10:50:45.954Z,1016.80
2019-03-20T10:51:45.942Z,1016.81
2019-03-20T10:52:45.937Z,1016.77
2019-03-20T10:53:45.955Z,1016.77
2019-03-20T10:54:45.914Z,1016.86
2019-03-20T10:55:45.909Z,1016.89
2019-03-20T10:56:45.888Z,1016.87
2019-03-20T10:57:45.883Z,1016.92
2019-03-20T10:58:45.894Z,1016.87
2019-03-20T10:59:45.859Z,1016.94
2019-03-20T11:00:45.855Z,1016.98
2019-03-20T11:01:45.834Z,1016.99
2019-03-20T11:02:45.832Z,1016.95
2019-03-20T11:03:45.842Z,1016.96
2019-03-20T11:04:45.809Z,1017.03
2019-03-20T11:05:45.807Z,1016.95
2019-03-20T11:06:45.789Z,1017.07
2019-03-20T11:07:45.781Z,1017.01
2019-03-20T11:08:45.793Z,1016.98
2019-03-20T11:09:45.751Z,1017.05
2019-03-20T11:10:45.739Z,1017.01
2019-03-20T11:11:45.731Z,1017.04
2019-03-20T11:12:45.720Z,1016.92
2019-03-20T11:13:45.741Z,1016.96
2019-03-20T11:14:45.700Z,1016.97
2019-03-20T11:15:45.687Z,1017.00
2019-03-20T11:16:45.680Z,1016.96
2019-03-20T11:17:54.652Z,1017.01
2019-03-20T11:18:48.285Z,1016.93
2019-03-20T11:19:45.648Z,1016.96
2019-03-20T11:20:45.651Z,1016.96
2019-03-20T11:21:45.623Z,1017.06
2019-03-20T11:22:45.613Z,1016.91
2019-03-20T11:23:45.627Z,1016.99
2019-03-20T11:24:45.596Z,1016.99
2019-03-20T11:25:45.583Z,1016.88
2019-03-20T11:26:45.577Z,1016.98
2019-03-20T11:27:45.563Z,1016.97
2019-03-20T11:28:45.582Z,1017.03
2019-03-20T11:29:45.545Z,1017.00
2019-03-20T11:30:45.534Z,1016.97
2019-03-20T11:31:45.518Z,1016.95
2019-03-20T11:32:45.504Z,1016.96
2019-03-20T11:33:45.518Z,1017.03
2019-03-20T11:34:45.490Z,1016.98
2019-03-20T11:35:45.475Z,1016.97
2019-03-20T11:36:45.462Z,1016.97
2019-03-20T11:37:45.455Z,1016.99
2019-03-20T11:38:45.473Z,1016.97
2019-03-20T11:39:45.433Z,1017.03
2019-03-20T11:40:45.418Z,1017.02
2019-03-20T11:41:45.406Z,1017.06
2019-03-20T11:42:45.402Z,1017.09
2019-03-20T11:43:45.410Z,1017.08
2019-03-20T11:44:45.371Z,1017.07
2019-03-20T11:45:45.364Z,1017.08
2019-03-20T11:46:45.363Z,1017.10
2019-03-20T11:47:45.344Z,1017.17
2019-03-20T11:48:45.355Z,1017.17
2019-03-20T11:49:45.320Z,1017.10
2019-03-20T11:50:45.307Z,1017.13
2019-03-20T11:51:45.300Z,1017.15
2019-03-20T11:52:45.295Z,1017.12
2019-03-20T11:53:45.342Z,1017.11
2019-03-20T11:54:45.264Z,1017.15
2019-03-20T11:55:45.250Z,1017.14
2019-03-20T11:56:45.239Z,1017.16
2019-03-20T11:57:45.234Z,1017.14
2019-03-20T11:58:45.246Z,1017.14
2019-03-20T11:59:45.208Z,1017.06
2019-03-20T12:00:45.195Z,1017.07
2019-03-20T12:01:45.190Z,1017.10
2019-03-20T12:02:45.178Z,1017.09
2019-03-20T12:03:45.191Z,1017.16
2019-03-20T12:04:45.159Z,1017.10
2019-03-20T12:05:45.143Z,1017.17
2019-03-20T12:06:45.151Z,1017.19